createdAt,value
2018-10-11T00:00:56.557Z,20.10
2018-10-11T00:03:23.995Z,21.48
2018-10-11T00:05:51.518Z,17.00
2018-10-11T00:08:18.994Z,22.30
2018-10-11T00:10:46.446Z,17.10
2018-10-11T00:13:13.916Z,18.42
2018-10-11T00:15:41.362Z,19.45
2018-10-11T00:18:08.819Z,19.37
2018-10-11T00:20:36.220Z,14.52
2018-10-11T00:23:03.631Z,17.95
2018-10-11T00:25:31.084Z,22.02
2018-10-11T00:27:58.558Z,19.25
2018-10-11T00:30:25.979Z,19.62
2018-10-11T00:32:53.472Z,20.48
2018-10-11T00:35:20.930Z,18.92
2018-10-11T00:37:48.375Z,19.65
2018-10-11T00:40:15.815Z,17.40
2018-10-11T00:42:43.299Z,20.98
2018-10-11T00:45:10.735Z,21.92
2018-10-11T00:47:38.171Z,19.08
2018-10-11T00:50:05.664Z,15.85
2018-10-11T00:52:33.127Z,17.10
2018-10-11T00:55:00.626Z,20.45
2018-10-11T00:57:28.080Z,14.50
2018-10-11T00:59:56.447Z,17.15
2018-10-11T01:02:23.925Z,19.17
2018-10-11T01:04:51.416Z,19.58
2018-10-11T01:07:19.117Z,18.65
2018-10-11T01:09:46.557Z,19.50
2018-10-11T01:12:14.128Z,16.33
2018-10-11T01:14:41.569Z,19.98
2018-10-11T01:17:09.019Z,16.98
2018-10-11T01:19:36.501Z,18.37
2018-10-11T01:22:03.914Z,19.75
2018-10-11T01:24:31.406Z,17.60
2018-10-11T01:26:58.855Z,16.25
2018-10-11T01:29:26.332Z,16.12
2018-10-11T01:31:53.740Z,20.15
2018-10-11T01:34:21.202Z,16.87
2018-10-11T01:36:48.647Z,14.60
2018-10-11T01:39:16.143Z,17.55
2018-10-11T01:41:43.575Z,16.00
2018-10-11T01:44:10.988Z,19.30
2018-10-11T01:46:38.471Z,14.43
2018-10-11T01:49:05.922Z,19.70
2018-10-11T01:51:33.408Z,17.33
2018-10-11T01:54:00.846Z,17.95
2018-10-11T01:56:28.278Z,20.55
2018-10-11T01:58:55.780Z,20.73
2018-10-11T02:01:23.236Z,18.77
2018-10-11T02:03:50.644Z,16.45
2018-10-11T02:06:18.118Z,15.05
2018-10-11T02:08:45.680Z,17.20
2018-10-11T02:11:13.144Z,18.77
2018-10-11T02:13:40.579Z,18.25
2018-10-11T02:16:08.035Z,18.30
2018-10-11T02:18:35.487Z,17.65
2018-10-11T02:21:02.963Z,16.55
2018-10-11T02:23:30.446Z,17.80
2018-10-11T02:25:57.888Z,25.55
2018-10-11T02:28:25.360Z,23.77
2018-10-11T02:30:52.880Z,17.48
2018-10-11T02:33:20.329Z,16.40
2018-10-11T02:35:47.915Z,16.45
2018-10-11T02:38:15.349Z,17.87
2018-10-11T02:40:42.801Z,16.37
2018-10-11T02:43:10.262Z,16.90
2018-10-11T02:45:37.760Z,16.92
2018-10-11T02:48:05.210Z,14.57
2018-10-11T02:50:32.613Z,17.00
2018-10-11T02:53:00.066Z,17.27
2018-10-11T02:55:27.555Z,15.18
2018-10-11T02:58:06.799Z,14.93
2018-10-11T03:00:34.251Z,15.15
2018-10-11T03:03:01.766Z,18.02
2018-10-11T03:05:29.227Z,15.75
2018-10-11T03:07:56.668Z,15.88
2018-10-11T03:10:24.151Z,19.58
2018-10-11T03:12:51.609Z,16.70
2018-10-11T03:15:19.020Z,19.10
2018-10-11T03:17:47.255Z,19.45
2018-10-11T03:20:14.728Z,14.02
2018-10-11T03:22:42.307Z,18.05
2018-10-11T03:25:09.899Z,16.23
2018-10-11T03:27:37.391Z,17.27
2018-10-11T03:30:04.855Z,21.10
2018-10-11T03:32:32.337Z,18.73
2018-10-11T03:34:59.837Z,18.00
2018-10-11T03:37:27.283Z,20.10
2018-10-11T03:39:54.769Z,18.40
2018-10-11T03:42:22.220Z,16.27
2018-10-11T03:44:49.762Z,17.73
2018-10-11T03:47:17.219Z,16.92
2018-10-11T03:49:44.014Z,16.98
2018-10-11T03:52:11.517Z,19.27
2018-10-11T03:54:38.939Z,17.40
2018-10-11T03:57:06.350Z,17.77
2018-10-11T03:59:33.807Z,18.83
2018-10-11T04:02:01.255Z,17.30
2018-10-11T04:04:28.758Z,16.70
2018-10-11T04:06:56.163Z,17.95
2018-10-11T04:09:23.649Z,18.77
2018-10-11T04:11:51.127Z,17.08
2018-10-11T04:14:18.573Z,17.48
2018-10-11T04:16:46.026Z,20.00
2018-10-11T04:19:13.460Z,19.48
2018-10-11T04:21:40.911Z,17.40
2018-10-11T04:24:08.727Z,17.45
2018-10-11T04:26:36.167Z,17.67
2018-10-11T04:29:03.641Z,17.58
2018-10-11T04:31:31.086Z,16.27
2018-10-11T04:33:58.560Z,17.62
2018-10-11T04:36:26.045Z,19.10
2018-10-11T04:38:53.604Z,16.77
2018-10-11T04:41:21.199Z,17.23
2018-10-11T04:43:48.637Z,18.40
2018-10-11T04:46:16.146Z,17.45
2018-10-11T04:48:43.639Z,15.23
2018-10-11T04:51:11.241Z,14.65
2018-10-11T04:53:39.150Z,16.58
2018-10-11T04:56:06.537Z,18.35
2018-10-11T04:58:34.075Z,20.40
2018-10-11T05:01:01.537Z,17.25
2018-10-11T05:03:28.987Z,17.92
2018-10-11T05:05:56.445Z,18.73
2018-10-11T05:08:23.930Z,17.98
2018-10-11T05:10:51.382Z,18.20
2018-10-11T05:13:18.809Z,21.80
2018-10-11T05:15:46.319Z,18.83
2018-10-11T05:18:14.406Z,16.73
2018-10-11T05:20:41.824Z,22.60
2018-10-11T05:23:09.288Z,18.10
2018-10-11T05:25:36.734Z,17.52
2018-10-11T05:28:04.188Z,16.55
2018-10-11T05:30:31.873Z,18.85
2018-10-11T05:32:59.333Z,19.05
2018-10-11T05:35:26.941Z,20.48
2018-10-11T05:37:54.452Z,19.12
2018-10-11T05:40:21.949Z,17.83
2018-10-11T05:42:49.462Z,18.83
2018-10-11T05:45:16.962Z,19.12
2018-10-11T05:47:44.469Z,17.60
2018-10-11T05:50:11.921Z,22.48
2018-10-11T05:52:39.379Z,18.92
2018-10-11T05:55:07.059Z,20.00
2018-10-11T05:57:34.503Z,20.60
2018-10-11T06:00:01.956Z,18.87
2018-10-11T06:02:29.416Z,17.62
2018-10-11T06:04:56.879Z,20.83
2018-10-11T06:07:24.321Z,18.77
2018-10-11T06:09:51.791Z,14.98
2018-10-11T06:12:19.236Z,18.50
2018-10-11T06:14:46.748Z,18.50
2018-10-11T06:17:14.206Z,20.12
2018-10-11T06:19:41.681Z,18.12
2018-10-11T06:22:09.082Z,17.58
2018-10-11T06:24:36.602Z,17.17
2018-10-11T06:27:04.325Z,17.23
2018-10-11T06:29:31.810Z,18.90
2018-10-11T06:31:59.272Z,19.70
2018-10-11T06:34:26.749Z,19.20
2018-10-11T06:36:54.224Z,19.15
2018-10-11T06:39:21.943Z,15.35
2018-10-11T06:41:49.504Z,18.87
2018-10-11T06:44:17.025Z,18.83
2018-10-11T06:46:44.512Z,17.48
2018-10-11T06:49:11.983Z,18.35
2018-10-11T06:51:39.464Z,18.87
2018-10-11T06:54:06.924Z,21.87
2018-10-11T06:56:34.541Z,19.17
2018-10-11T06:59:02.004Z,17.40
2018-10-11T07:01:29.588Z,17.33
2018-10-11T07:03:57.212Z,17.50
2018-10-11T07:06:24.709Z,55.33
2018-10-11T07:08:52.145Z,32.20
2018-10-11T07:11:19.661Z,19.35
2018-10-11T07:13:47.155Z,20.60
2018-10-11T07:16:14.579Z,15.48
2018-10-11T07:18:42.027Z,22.75
2018-10-11T07:21:09.702Z,16.77
2018-10-11T07:23:37.138Z,17.42
2018-10-11T07:26:04.712Z,16.25
2018-10-11T07:28:32.127Z,16.65
2018-10-11T07:30:59.629Z,16.62
2018-10-11T07:33:27.058Z,16.12
2018-10-11T07:35:54.649Z,18.10
2018-10-11T07:38:22.598Z,15.85
2018-10-11T07:40:50.219Z,18.00
2018-10-11T07:43:17.572Z,19.08
2018-10-11T07:45:45.147Z,15.68
2018-10-11T07:48:12.729Z,18.67
2018-10-11T07:50:40.242Z,16.30
2018-10-11T07:53:07.731Z,19.33
2018-10-11T07:55:35.318Z,16.67
2018-10-11T07:58:02.802Z,14.80
2018-10-11T08:00:30.317Z,15.68
2018-10-11T08:02:57.765Z,16.33
2018-10-11T08:05:25.233Z,15.80
2018-10-11T08:07:52.746Z,20.10
2018-10-11T08:10:20.671Z,18.60
2018-10-11T08:12:48.117Z,19.12
2018-10-11T08:15:15.575Z,16.83
2018-10-11T08:17:43.247Z,19.25
2018-10-11T08:20:10.529Z,16.52
2018-10-11T08:22:37.962Z,18.60
2018-10-11T08:25:05.674Z,17.70
2018-10-11T08:27:33.426Z,17.17
2018-10-11T08:30:00.893Z,16.40
2018-10-11T08:32:28.624Z,15.05
2018-10-11T08:34:55.975Z,17.20
2018-10-11T08:37:23.539Z,17.10
2018-10-11T08:39:51.024Z,17.75
2018-10-11T08:42:19.101Z,19.33
2018-10-11T08:44:46.700Z,17.15
2018-10-11T08:47:14.193Z,16.45
2018-10-11T08:49:41.655Z,21.25
2018-10-11T08:52:09.131Z,18.60
2018-10-11T08:54:36.542Z,21.77
2018-10-11T08:57:04.137Z,26.85
2018-10-11T08:59:31.656Z,20.10
2018-10-11T09:01:59.969Z,20.40
2018-10-11T09:04:27.445Z,20.80
2018-10-11T09:06:54.858Z,20.23
2018-10-11T09:09:22.334Z,21.10
2018-10-11T09:11:49.855Z,19.95
2018-10-11T09:14:17.312Z,18.97
2018-10-11T09:16:44.820Z,17.80
2018-10-11T09:19:13.189Z,17.50
2018-10-11T09:21:40.614Z,19.10
2018-10-11T09:24:08.123Z,17.33
2018-10-11T09:26:35.581Z,17.10
2018-10-11T09:29:03.024Z,15.85
2018-10-11T09:31:30.474Z,16.60
2018-10-11T09:38:52.043Z,15.70
2018-10-11T09:46:13.530Z,17.25
2018-10-11T09:48:41.055Z,17.50
2018-10-11T09:53:35.995Z,17.25
2018-10-11T09:56:03.441Z,16.87
2018-10-11T09:58:30.920Z,18.45
2018-10-11T10:00:58.358Z,21.83
2018-10-11T10:03:25.851Z,18.83
2018-10-11T10:05:53.580Z,18.70
2018-10-11T10:08:21.135Z,20.27
2018-10-11T10:10:48.696Z,16.55
2018-10-11T10:13:16.139Z,17.00
2018-10-11T10:15:43.794Z,14.80
2018-10-11T10:20:38.328Z,18.40
2018-10-11T10:23:05.778Z,20.55
2018-10-11T10:25:33.265Z,20.20
2018-10-11T10:28:00.791Z,23.10
2018-10-11T10:30:28.249Z,19.00
2018-10-11T10:32:55.975Z,18.60
2018-10-11T10:37:50.563Z,44.85
2018-10-11T10:42:45.221Z,42.95
2018-10-11T10:45:12.642Z,20.75
2018-10-11T11:24:27.720Z,22.30
2018-10-11T11:26:55.358Z,21.80
2018-10-11T11:29:22.838Z,21.15
2018-10-11T11:31:50.498Z,25.20
2018-10-11T11:34:18.568Z,24.25
2018-10-11T11:36:46.102Z,21.37
2018-10-11T11:39:13.983Z,20.20
2018-10-11T11:41:41.400Z,21.23
2018-10-11T11:46:35.890Z,19.70
2018-10-11T11:49:03.484Z,17.30
2018-10-11T12:01:19.018Z,18.42
2018-10-11T12:06:13.548Z,19.20
2018-10-11T12:08:40.952Z,19.00
2018-10-11T12:11:08.535Z,19.98
2018-10-11T12:13:36.053Z,18.30
2018-10-11T12:16:03.547Z,17.58
2018-10-11T12:18:31.014Z,22.98
2018-10-11T12:20:58.485Z,21.85
2018-10-11T12:23:25.950Z,22.52
2018-10-11T12:25:53.921Z,22.45
2018-10-11T12:28:21.464Z,21.30
2018-10-11T12:30:48.891Z,24.12
2018-10-11T12:33:16.449Z,27.90
2018-10-11T14:18:40.020Z,9.40
2018-10-11T14:21:07.521Z,12.80
2018-10-11T14:23:35.052Z,11.40
2018-10-11T14:26:02.536Z,10.70
2018-10-11T15:19:58.060Z,18.70
2018-10-11T15:22:25.581Z,13.70
2018-10-11T15:24:53.196Z,13.30
2018-10-11T15:34:43.042Z,17.23
2018-10-11T15:37:10.519Z,12.40
2018-10-11T16:23:48.912Z,8.85
2018-10-11T16:33:37.714Z,13.25
2018-10-11T16:40:59.994Z,12.05
2018-10-11T16:43:27.560Z,11.00
2018-10-11T16:45:55.106Z,12.65
2018-10-11T16:48:22.573Z,12.77
2018-10-11T16:50:50.118Z,13.65
2018-10-11T16:53:17.808Z,9.10
2018-10-11T16:55:45.458Z,8.45
2018-10-11T16:58:12.994Z,8.10
2018-10-11T17:00:40.541Z,9.27
2018-10-11T17:03:08.096Z,9.98
2018-10-11T17:05:35.540Z,7.50
2018-10-11T17:08:03.041Z,8.52
2018-10-11T17:10:30.535Z,9.52
2018-10-11T17:20:19.130Z,9.20
2018-10-11T17:22:48.371Z,9.70
2018-10-11T17:27:43.019Z,10.10
2018-10-11T17:32:38.037Z,10.10
2018-10-11T17:39:59.898Z,9.50
2018-10-11T17:42:27.501Z,11.20
2018-10-11T18:11:53.096Z,11.10
2018-10-11T18:14:20.511Z,9.30
2018-10-11T18:16:47.984Z,12.20
2018-10-11T18:19:15.424Z,10.77
2018-10-11T18:21:42.958Z,10.35
2018-10-11T18:24:10.315Z,10.70
2018-10-11T18:26:37.822Z,10.35
2018-10-11T18:29:05.278Z,9.48
2018-10-11T18:31:32.814Z,10.43
2018-10-11T18:34:00.327Z,8.68
2018-10-11T18:36:27.758Z,9.88
2018-10-11T18:38:56.421Z,10.73
2018-10-11T18:41:23.888Z,11.07
2018-10-11T18:43:51.417Z,7.97
2018-10-11T18:46:19.737Z,11.25
2018-10-11T18:48:47.279Z,11.40
2018-10-11T18:51:14.757Z,9.80
2018-10-11T18:53:42.393Z,9.82
2018-10-11T18:56:09.826Z,9.32
2018-10-11T18:58:37.390Z,10.70
2018-10-11T19:01:04.886Z,10.02
2018-10-11T19:03:32.505Z,9.80
2018-10-11T19:06:00.056Z,11.07
2018-10-11T19:08:27.517Z,8.82
2018-10-11T19:10:55.000Z,12.57
2018-10-11T19:13:22.491Z,9.23
2018-10-11T19:15:50.226Z,11.73
2018-10-11T19:18:17.699Z,11.02
2018-10-11T19:20:45.252Z,10.43
2018-10-11T19:23:12.840Z,10.77
2018-10-11T19:25:40.324Z,10.15
2018-10-11T19:28:07.965Z,10.65
2018-10-11T19:30:35.469Z,14.18
2018-10-11T19:33:02.925Z,11.63
2018-10-11T19:35:30.371Z,11.63
2018-10-11T19:37:57.822Z,12.77
2018-10-11T19:40:25.819Z,9.70
2018-10-11T19:42:54.075Z,12.50
2018-10-11T19:45:21.523Z,11.95
2018-10-11T19:47:48.967Z,10.90
2018-10-11T19:50:16.484Z,8.40
2018-10-11T19:52:43.879Z,10.00
2018-10-11T19:55:11.330Z,9.35
2018-10-11T19:57:38.811Z,10.18
2018-10-11T20:00:06.255Z,10.68
2018-10-11T20:02:33.715Z,9.40
2018-10-11T20:05:01.150Z,10.25
2018-10-11T20:07:28.998Z,13.93
2018-10-11T20:09:56.500Z,12.65
2018-10-11T20:12:24.012Z,11.10
2018-10-11T20:14:51.491Z,9.77
2018-10-11T20:17:19.005Z,10.13
2018-10-11T20:19:46.386Z,8.32
2018-10-11T20:22:13.886Z,9.88
2018-10-11T20:24:41.309Z,11.90
2018-10-11T20:27:08.881Z,11.77
2018-10-11T20:29:36.448Z,11.10
2018-10-11T20:32:03.896Z,10.35
2018-10-11T20:34:31.328Z,8.55
2018-10-11T20:36:58.784Z,9.50
2018-10-11T20:39:26.301Z,10.45
2018-10-11T20:41:53.826Z,8.07
2018-10-11T20:44:21.311Z,7.82
2018-10-11T20:46:48.735Z,8.60
2018-10-11T20:49:16.147Z,9.13
2018-10-11T20:51:43.613Z,8.90
2018-10-11T20:54:11.595Z,8.68
2018-10-11T20:56:39.019Z,9.68
2018-10-11T20:59:06.509Z,7.45
2018-10-11T21:01:33.965Z,7.78
2018-10-11T21:04:01.442Z,9.60
2018-10-11T21:06:28.915Z,9.98
2018-10-11T21:08:56.425Z,7.32
2018-10-11T21:11:23.863Z,6.57
2018-10-11T21:13:51.388Z,5.47
2018-10-11T21:16:18.873Z,7.80
2018-10-11T21:18:47.569Z,6.62
2018-10-11T21:21:15.785Z,7.68
2018-10-11T21:23:43.260Z,6.95
2018-10-11T21:26:10.881Z,9.75
2018-10-11T21:28:38.377Z,8.70
2018-10-11T21:31:05.893Z,6.45
2018-10-11T21:33:33.417Z,7.93
2018-10-11T21:36:00.810Z,6.12
2018-10-11T21:38:28.578Z,7.00
2018-10-11T21:40:56.032Z,7.20
2018-10-11T21:43:23.519Z,6.47
2018-10-11T21:45:51.077Z,7.07
2018-10-11T21:48:18.588Z,6.70
2018-10-11T21:50:46.083Z,7.37
2018-10-11T21:53:13.653Z,6.95
2018-10-11T21:55:41.098Z,6.55
2018-10-11T21:58:08.526Z,7.62
2018-10-11T22:00:35.923Z,7.28
2018-10-11T22:03:03.452Z,7.05
2018-10-11T22:05:30.896Z,6.97
2018-10-11T22:07:58.356Z,7.10
2018-10-11T22:10:25.912Z,6.00
2018-10-11T22:12:53.412Z,8.77
2018-10-11T22:15:20.836Z,7.80
2018-10-11T22:17:48.355Z,8.73
2018-10-11T22:20:15.802Z,7.57
2018-10-11T22:22:43.255Z,10.40
2018-10-11T22:25:11.050Z,8.18
2018-10-11T22:27:38.672Z,6.87
2018-10-11T22:30:06.195Z,6.35
2018-10-11T22:32:33.601Z,6.80
2018-10-11T22:35:01.240Z,7.12
2018-10-11T22:37:29.467Z,6.40
2018-10-11T22:39:56.929Z,7.87
2018-10-11T22:42:24.401Z,6.70
2018-10-11T22:44:51.822Z,10.20
2018-10-11T22:47:19.315Z,5.78
2018-10-11T22:49:46.738Z,6.68
2018-10-11T22:52:14.218Z,7.28
2018-10-11T22:54:41.664Z,8.57
2018-10-11T22:57:09.070Z,8.57
2018-10-11T22:59:36.558Z,7.70
2018-10-11T23:02:05.450Z,7.12
2018-10-11T23:04:32.862Z,7.15
2018-10-11T23:07:00.306Z,8.13
2018-10-11T23:09:27.909Z,6.32
2018-10-11T23:11:55.388Z,7.70
2018-10-11T23:14:22.958Z,7.30
2018-10-11T23:16:50.441Z,6.85
2018-10-11T23:19:17.942Z,8.07
2018-10-11T23:21:45.371Z,6.43
2018-10-11T23:24:13.320Z,6.60
2018-10-11T23:26:40.767Z,8.30
2018-10-11T23:29:08.191Z,7.78
2018-10-11T23:31:35.663Z,8.75
2018-10-11T23:34:03.628Z,7.93
2018-10-11T23:36:31.073Z,6.00
2018-10-11T23:38:58.590Z,7.32
2018-10-11T23:41:26.006Z,7.70
2018-10-11T23:43:53.461Z,8.27
2018-10-11T23:46:20.955Z,6.68
2018-10-11T23:48:48.457Z,6.50
2018-10-11T23:51:15.963Z,8.43
2018-10-11T23:53:43.424Z,6.28
2018-10-11T23:56:10.874Z,6.47
2018-10-11T23:58:39.262Z,6.12
